DEDDG EDDG-ZZZZ
Flight info
| Callsign | DEDDG |
|---|---|
| Flight time | N/A |
| Altitude | 2500 |
| Route | VFR |
| Aircraft | S22T/L-SDE3FGHIRWY/LB1 |
Departure
| Time | 2026-04-30 18:45 |
|---|---|
| Airport | Münster Osnabrück Airport (EDDG) |
Arrival
| Time | N/A |
|---|---|
| Airport | ZZZZ |
| Time | Latitude | Longitude | Altitude | Speed | Heading |
|---|---|---|---|---|---|
| 2026-04-30 18:34 | 52.13140 | 7.68236 | 161 ft | 0 kts | 94° |
| 2026-04-30 18:40 | 52.13147 | 7.68278 | 161 ft | 7 kts | 17° |
| 2026-04-30 18:40 | 52.13196 | 7.68331 | 161 ft | 12 kts | 69° |
| 2026-04-30 18:40 | 52.13270 | 7.68391 | 162 ft | 15 kts | 76° |
| 2026-04-30 18:40 | 52.13304 | 7.68550 | 162 ft | 16 kts | 72° |
| 2026-04-30 18:41 | 52.13342 | 7.68727 | 162 ft | 18 kts | 70° |
| 2026-04-30 18:41 | 52.13383 | 7.68924 | 162 ft | 19 kts | 71° |
| 2026-04-30 18:41 | 52.13427 | 7.69133 | 162 ft | 20 kts | 72° |
| 2026-04-30 18:41 | 52.13472 | 7.69346 | 162 ft | 20 kts | 71° |
| 2026-04-30 18:42 | 52.13517 | 7.69560 | 163 ft | 20 kts | 72° |
| 2026-04-30 18:42 | 52.13599 | 7.69949 | 163 ft | 14 kts | 68° |
| 2026-04-30 18:42 | 52.13671 | 7.70036 | 163 ft | 12 kts | 6° |
| 2026-04-30 18:45 | 52.10776 | 7.66566 | 753 ft | 108 kts | 119° |
| 2026-04-30 18:45 | 52.10803 | 7.67754 | 774 ft | 108 kts | 73° |
| 2026-04-30 18:45 | 52.11082 | 7.68850 | 779 ft | 103 kts | 69° |
| 2026-04-30 18:46 | 52.11392 | 7.69883 | 745 ft | 101 kts | 67° |
| 2026-04-30 18:46 | 52.11716 | 7.70904 | 745 ft | 101 kts | 65° |
| 2026-04-30 18:46 | 52.12042 | 7.71840 | 703 ft | 90 kts | 59° |
| 2026-04-30 18:46 | 52.12637 | 7.72178 | 662 ft | 99 kts | 354° |
| 2026-04-30 18:47 | 52.13185 | 7.71587 | 602 ft | 94 kts | 327° |
| 2026-04-30 18:47 | 52.13689 | 7.70880 | 420 ft | 100 kts | 308° |
| 2026-04-30 18:47 | 52.13753 | 7.69843 | 200 ft | 90 kts | 245° |
| 2026-04-30 18:47 | 52.13561 | 7.68989 | 163 ft | 76 kts | 253° |
| 2026-04-30 18:48 | 52.13348 | 7.68030 | 224 ft | 97 kts | 249° |
| 2026-04-30 18:48 | 52.13125 | 7.66973 | 379 ft | 100 kts | 248° |
| 2026-04-30 18:48 | 52.12851 | 7.65867 | 477 ft | 112 kts | 243° |
| 2026-04-30 18:48 | 52.12241 | 7.65155 | 521 ft | 113 kts | 177° |
| 2026-04-30 18:49 | 52.11491 | 7.65389 | 571 ft | 110 kts | 157° |
| 2026-04-30 18:49 | 52.10805 | 7.65865 | 624 ft | 105 kts | 137° |
| 2026-04-30 18:49 | 52.10478 | 7.66830 | 681 ft | 100 kts | 91° |
| 2026-04-30 18:49 | 52.10647 | 7.67936 | 700 ft | 105 kts | 71° |
| 2026-04-30 18:50 | 52.10936 | 7.69041 | 710 ft | 107 kts | 70° |
| 2026-04-30 18:50 | 52.11213 | 7.70144 | 747 ft | 100 kts | 72° |
| 2026-04-30 18:50 | 52.11474 | 7.71170 | 764 ft | 96 kts | 69° |
| 2026-04-30 18:50 | 52.11757 | 7.72141 | 754 ft | 95 kts | 69° |
| 2026-04-30 18:51 | 52.12086 | 7.73084 | 740 ft | 99 kts | 57° |
| 2026-04-30 18:51 | 52.12695 | 7.73497 | 726 ft | 99 kts | 359° |
| 2026-04-30 18:51 | 52.13306 | 7.73088 | 680 ft | 87 kts | 337° |
| 2026-04-30 18:51 | 52.13787 | 7.72519 | 606 ft | 90 kts | 325° |
| 2026-04-30 18:52 | 52.14070 | 7.71605 | 512 ft | 98 kts | 269° |
| 2026-04-30 18:52 | 52.13883 | 7.70528 | 322 ft | 99 kts | 250° |
| 2026-04-30 18:52 | 52.13669 | 7.69492 | 176 ft | 89 kts | 248° |
| 2026-04-30 18:52 | 52.13484 | 7.68615 | 161 ft | 91 kts | 250° |
| 2026-04-30 18:53 | 52.13237 | 7.67527 | 331 ft | 107 kts | 246° |
| 2026-04-30 18:53 | 52.12931 | 7.66375 | 598 ft | 117 kts | 242° |
| 2026-04-30 18:53 | 52.12552 | 7.65202 | 788 ft | 117 kts | 230° |
| 2026-04-30 18:53 | 52.11887 | 7.64608 | 878 ft | 107 kts | 177° |
| 2026-04-30 18:54 | 52.11161 | 7.64804 | 925 ft | 106 kts | 155° |
| 2026-04-30 18:54 | 52.10480 | 7.65250 | 916 ft | 104 kts | 148° |
| 2026-04-30 18:54 | 52.09925 | 7.65932 | 897 ft | 99 kts | 113° |
| 2026-04-30 18:54 | 52.10008 | 7.66965 | 898 ft | 101 kts | 56° |
| 2026-04-30 18:55 | 52.10474 | 7.67825 | 881 ft | 103 kts | 55° |
| 2026-04-30 18:55 | 52.11231 | 7.69770 | 851 ft | 105 kts | 66° |
| 2026-04-30 18:55 | 52.11582 | 7.70795 | 787 ft | 102 kts | 66° |
| 2026-04-30 18:56 | 52.12256 | 7.72531 | 672 ft | 90 kts | 42° |
| 2026-04-30 18:56 | 52.12866 | 7.72585 | 644 ft | 91 kts | 336° |
| 2026-04-30 18:56 | 52.13387 | 7.72071 | 577 ft | 87 kts | 332° |
| 2026-04-30 18:57 | 52.13907 | 7.70473 | 366 ft | 97 kts | 239° |
| 2026-04-30 18:57 | 52.13665 | 7.69440 | 177 ft | 92 kts | 247° |
| 2026-04-30 18:57 | 52.13481 | 7.68580 | 161 ft | 74 kts | 251° |
| 2026-04-30 18:58 | 52.12973 | 7.66526 | 426 ft | 108 kts | 242° |
| 2026-04-30 18:58 | 52.12624 | 7.65393 | 519 ft | 113 kts | 238° |
| 2026-04-30 18:58 | 52.12165 | 7.64391 | 600 ft | 110 kts | 199° |
| 2026-04-30 18:59 | 52.10754 | 7.64687 | 829 ft | 105 kts | 159° |
| 2026-04-30 19:00 | 52.10437 | 7.67427 | 988 ft | 107 kts | 69° |
| 2026-04-30 19:00 | 52.10767 | 7.68506 | 993 ft | 108 kts | 66° |
| 2026-04-30 19:00 | 52.11475 | 7.70614 | 927 ft | 100 kts | 65° |
| 2026-04-30 19:01 | 52.12087 | 7.72389 | 798 ft | 81 kts | 67° |
| 2026-04-30 19:01 | 52.12508 | 7.73008 | 773 ft | 90 kts | 22° |
| 2026-04-30 19:02 | 52.13758 | 7.72327 | 672 ft | 96 kts | 326° |
| 2026-04-30 19:02 | 52.13843 | 7.70346 | 297 ft | 89 kts | 251° |
| 2026-04-30 19:03 | 52.13477 | 7.68555 | 162 ft | 89 kts | 249° |
| 2026-04-30 19:03 | 52.12948 | 7.66342 | 570 ft | 111 kts | 240° |
| 2026-04-30 19:04 | 52.11794 | 7.64893 | 790 ft | 111 kts | 166° |
| 2026-04-30 19:04 | 52.10389 | 7.65793 | 924 ft | 103 kts | 142° |
| 2026-04-30 19:05 | 52.10182 | 7.67655 | 951 ft | 95 kts | 67° |
| 2026-04-30 19:05 | 52.10892 | 7.69546 | 944 ft | 101 kts | 61° |
| 2026-04-30 19:06 | 52.11599 | 7.71515 | 882 ft | 91 kts | 67° |
| 2026-04-30 19:06 | 52.11892 | 7.72379 | 836 ft | 86 kts | 66° |
| 2026-04-30 19:06 | 52.12987 | 7.72545 | 788 ft | 93 kts | 337° |
| 2026-04-30 19:07 | 52.13950 | 7.71302 | 557 ft | 92 kts | 295° |
| 2026-04-30 19:07 | 52.13839 | 7.70297 | 336 ft | 96 kts | 249° |
| 2026-04-30 19:08 | 52.13441 | 7.68395 | 163 ft | 83 kts | 251° |
| 2026-04-30 19:08 | 52.12943 | 7.66242 | 590 ft | 108 kts | 244° |
| 2026-04-30 19:08 | 52.12560 | 7.65116 | 774 ft | 117 kts | 220° |
| 2026-04-30 19:09 | 52.11068 | 7.65163 | 1069 ft | 116 kts | 154° |
| 2026-04-30 19:09 | 52.10345 | 7.65639 | 1111 ft | 108 kts | 142° |
| 2026-04-30 19:09 | 52.10064 | 7.66637 | 1097 ft | 105 kts | 77° |
| 2026-04-30 19:10 | 52.10764 | 7.68678 | 1173 ft | 105 kts | 67° |
| 2026-04-30 19:10 | 52.11508 | 7.70752 | 1211 ft | 109 kts | 65° |
| 2026-04-30 19:11 | 52.11882 | 7.71762 | 1178 ft | 102 kts | 67° |
| 2026-04-30 19:11 | 52.12726 | 7.73271 | 996 ft | 84 kts | 55° |
| 2026-04-30 19:11 | 52.13162 | 7.73838 | 900 ft | 94 kts | 9° |
| 2026-04-30 19:12 | 52.13806 | 7.73409 | 820 ft | 104 kts | 334° |
| 2026-04-30 19:12 | 52.14266 | 7.72531 | 727 ft | 99 kts | 285° |
| 2026-04-30 19:12 | 52.14137 | 7.71505 | 522 ft | 95 kts | 236° |
| 2026-04-30 19:13 | 52.13663 | 7.69430 | 196 ft | 95 kts | 248° |
| 2026-04-30 19:13 | 52.13258 | 7.67548 | 246 ft | 102 kts | 250° |
| 2026-04-30 19:13 | 52.13014 | 7.66443 | 471 ft | 105 kts | 246° |
| 2026-04-30 19:14 | 52.12705 | 7.65352 | 658 ft | 114 kts | 240° |
| 2026-04-30 19:14 | 52.12049 | 7.64608 | 820 ft | 122 kts | 177° |
| 2026-04-30 19:14 | 52.11265 | 7.64963 | 958 ft | 117 kts | 152° |
| 2026-04-30 19:14 | 52.10586 | 7.65634 | 1003 ft | 115 kts | 123° |
| 2026-04-30 19:15 | 52.10484 | 7.66860 | 1070 ft | 115 kts | 72° |
| 2026-04-30 19:15 | 52.11232 | 7.69223 | 1211 ft | 128 kts | 65° |
| 2026-04-30 19:15 | 52.11700 | 7.70524 | 1278 ft | 139 kts | 65° |
| 2026-04-30 19:16 | 52.12296 | 7.71839 | 1272 ft | 154 kts | 43° |
| 2026-04-30 19:16 | 52.13324 | 7.72182 | 1049 ft | 157 kts | 356° |
| 2026-04-30 19:16 | 52.13754 | 7.69781 | 444 ft | 157 kts | 251° |
| 2026-04-30 19:17 | 52.13397 | 7.68165 | 806 ft | 150 kts | 244° |
| 2026-04-30 19:17 | 52.12782 | 7.65673 | 1026 ft | 135 kts | 227° |
| 2026-04-30 19:17 | 52.11998 | 7.65081 | 1051 ft | 121 kts | 166° |
| 2026-04-30 19:18 | 52.10884 | 7.65888 | 1193 ft | 106 kts | 110° |
| 2026-04-30 19:18 | 52.11086 | 7.67478 | 1154 ft | 121 kts | 65° |
| 2026-04-30 19:18 | 52.11518 | 7.68675 | 1158 ft | 123 kts | 64° |
| 2026-04-30 19:19 | 52.11974 | 7.69874 | 1145 ft | 125 kts | 60° |
| 2026-04-30 19:19 | 52.12473 | 7.71070 | 1083 ft | 128 kts | 61° |
| 2026-04-30 19:19 | 52.13932 | 7.72139 | 1000 ft | 135 kts | 337° |
| 2026-04-30 19:20 | 52.13904 | 7.70753 | 473 ft | 151 kts | 250° |
| 2026-04-30 19:20 | 52.13585 | 7.69067 | 459 ft | 157 kts | 248° |
| 2026-04-30 19:20 | 52.12776 | 7.65778 | 786 ft | 142 kts | 224° |
| 2026-04-30 19:21 | 52.11929 | 7.65337 | 824 ft | 127 kts | 167° |
| 2026-04-30 19:21 | 52.11145 | 7.67034 | 879 ft | 122 kts | 65° |
| 2026-04-30 19:22 | 52.11953 | 7.69372 | 855 ft | 114 kts | 65° |
| 2026-04-30 19:22 | 52.13443 | 7.70922 | 562 ft | 95 kts | 353° |
| 2026-04-30 19:23 | 52.13397 | 7.68140 | 240 ft | 103 kts | 251° |
| 2026-04-30 19:24 | 52.12915 | 7.65880 | 875 ft | 105 kts | 248° |
| 2026-04-30 19:24 | 52.12567 | 7.64795 | 1168 ft | 112 kts | 208° |
| 2026-04-30 19:24 | 52.11094 | 7.65061 | 1591 ft | 118 kts | 142° |
| 2026-04-30 19:25 | 52.11625 | 7.68800 | 1444 ft | 119 kts | 71° |
| 2026-04-30 19:26 | 52.12299 | 7.71133 | 1061 ft | 115 kts | 72° |
| 2026-04-30 19:26 | 52.12999 | 7.73638 | 835 ft | 119 kts | 76° |
| 2026-04-30 19:26 | 52.13273 | 7.74720 | 797 ft | 109 kts | 56° |
| 2026-04-30 19:27 | 52.14482 | 7.73910 | 538 ft | 123 kts | 274° |
| 2026-04-30 19:27 | 52.14049 | 7.71269 | 404 ft | 126 kts | 252° |
| 2026-04-30 19:28 | 52.13765 | 7.69910 | 210 ft | 127 kts | 250° |
| 2026-04-30 19:28 | 52.13239 | 7.67421 | 158 ft | 106 kts | 252° |
| 2026-04-30 19:29 | 52.12694 | 7.64964 | 867 ft | 120 kts | 238° |
| 2026-04-30 19:29 | 52.12018 | 7.64390 | 1127 ft | 114 kts | 159° |
| 2026-04-30 19:30 | 52.10013 | 7.66037 | 1233 ft | 111 kts | 97° |
| 2026-04-30 19:30 | 52.10718 | 7.68347 | 1292 ft | 116 kts | 64° |
| 2026-04-30 19:31 | 52.11599 | 7.70623 | 1259 ft | 121 kts | 68° |
| 2026-04-30 19:31 | 52.12015 | 7.71817 | 1295 ft | 119 kts | 65° |
| 2026-04-30 19:31 | 52.12768 | 7.74115 | 1159 ft | 104 kts | 71° |
| 2026-04-30 19:32 | 52.13061 | 7.75138 | 1123 ft | 99 kts | 71° |
| 2026-04-30 19:32 | 52.13573 | 7.75865 | 1074 ft | 110 kts | 21° |
| 2026-04-30 19:32 | 52.14354 | 7.75507 | 982 ft | 125 kts | 331° |
| 2026-04-30 19:32 | 52.14737 | 7.74410 | 841 ft | 116 kts | 255° |
| 2026-04-30 19:33 | 52.14449 | 7.73225 | 692 ft | 109 kts | 247° |
| 2026-04-30 19:33 | 52.14223 | 7.72063 | 536 ft | 105 kts | 251° |
| 2026-04-30 19:33 | 52.13981 | 7.70987 | 406 ft | 96 kts | 250° |
| 2026-04-30 19:33 | 52.13791 | 7.69999 | 218 ft | 88 kts | 248° |
| 2026-04-30 19:34 | 52.13601 | 7.69142 | 165 ft | 71 kts | 251° |
| 2026-04-30 19:34 | 52.13404 | 7.68210 | 199 ft | 102 kts | 252° |
| 2026-04-30 19:34 | 52.12826 | 7.65790 | 657 ft | 134 kts | 241° |
| 2026-04-30 19:35 | 52.12319 | 7.64441 | 780 ft | 140 kts | 217° |
| 2026-04-30 19:35 | 52.11465 | 7.64147 | 947 ft | 122 kts | 154° |
| 2026-04-30 19:35 | 52.10821 | 7.64987 | 1054 ft | 117 kts | 132° |
| 2026-04-30 19:35 | 52.10382 | 7.66051 | 1103 ft | 119 kts | 99° |
| 2026-04-30 19:36 | 52.10624 | 7.67367 | 1123 ft | 125 kts | 67° |
| 2026-04-30 19:36 | 52.11065 | 7.68598 | 1134 ft | 129 kts | 64° |
| 2026-04-30 19:36 | 52.12109 | 7.71026 | 1098 ft | 126 kts | 57° |
| 2026-04-30 19:37 | 52.12632 | 7.72091 | 1066 ft | 118 kts | 59° |
| 2026-04-30 19:37 | 52.13042 | 7.73220 | 1030 ft | 115 kts | 69° |
| 2026-04-30 19:37 | 52.13408 | 7.74306 | 1117 ft | 99 kts | 68° |
| 2026-04-30 19:37 | 52.13639 | 7.75289 | 1125 ft | 89 kts | 78° |
| 2026-04-30 19:38 | 52.13810 | 7.76229 | 1106 ft | 87 kts | 78° |
| 2026-04-30 19:38 | 52.14022 | 7.77124 | 1109 ft | 81 kts | 73° |
| 2026-04-30 19:38 | 52.14235 | 7.77969 | 1085 ft | 78 kts | 77° |
| 2026-04-30 19:38 | 52.14495 | 7.78750 | 1053 ft | 87 kts | 45° |
| 2026-04-30 19:39 | 52.15123 | 7.78836 | 1017 ft | 103 kts | 343° |
| 2026-04-30 19:39 | 52.15609 | 7.78023 | 972 ft | 111 kts | 276° |
| 2026-04-30 19:39 | 52.15346 | 7.76934 | 972 ft | 104 kts | 232° |
| 2026-04-30 19:39 | 52.15021 | 7.75860 | 933 ft | 109 kts | 248° |
| 2026-04-30 19:40 | 52.14784 | 7.74679 | 842 ft | 110 kts | 249° |
| 2026-04-30 19:40 | 52.14536 | 7.73540 | 741 ft | 107 kts | 247° |
| 2026-04-30 19:40 | 52.14311 | 7.72469 | 609 ft | 92 kts | 248° |
| 2026-04-30 19:40 | 52.14092 | 7.71511 | 476 ft | 90 kts | 252° |
| 2026-04-30 19:41 | 52.13887 | 7.70507 | 337 ft | 97 kts | 251° |
| 2026-04-30 19:41 | 52.13674 | 7.69499 | 198 ft | 93 kts | 251° |
| 2026-04-30 19:41 | 52.13489 | 7.68595 | 161 ft | 72 kts | 252° |
| 2026-04-30 19:41 | 52.13302 | 7.68232 | 162 ft | 23 kts | 115° |
| 2026-04-30 19:42 | 52.13251 | 7.68327 | 161 ft | 0 kts | 162° |
| 2026-04-30 19:42 | 52.13202 | 7.68353 | 161 ft | 12 kts | 159° |
| 2026-04-30 19:42 | 52.13153 | 7.68302 | 161 ft | 4 kts | 277° |
| 2026-04-30 19:43 | 52.13153 | 7.68301 | 161 ft | 0 kts | 277° |